Time,TemperatureF,DewpointF,PressureIn,WindDirection,WindDirectionDegrees,WindSpeedMPH,WindSpeedGustMPH,Humidity,HourlyPrecipIn,Conditions,Clouds,dailyrainin,SolarRadiationWatts/m^2,SoftwareType,DateUTC
2013-02-02 00:07:00,45.9,31.0,30.32,North,5,3.0,5.0,56,0.00,,,0.00,0,weatherlink.com 1.10,2013-02-02 05:07:00,
2013-02-02 00:22:00,45.5,30.0,30.32,North,5,2.0,6.0,54,0.00,,,0.00,0,weatherlink.com 1.10,2013-02-02 05:22:00,
2013-02-02 00:37:00,44.7,29.0,30.32,North,355,2.0,5.0,55,0.00,,,0.00,0,weatherlink.com 1.10,2013-02-02 05:37:00,
2013-02-02 00:52:00,44.2,29.0,30.33,North,5,1.0,4.0,55,0.00,,,0.00,0,weatherlink.com 1.10,2013-02-02 05:52:00,
2013-02-02 01:07:00,43.7,28.0,30.33,North,355,2.0,5.0,55,0.00,,,0.00,0,weatherlink.com 1.10,2013-02-02 06:07:00,
2013-02-02 01:22:00,43.4,28.0,30.33,North,5,2.0,6.0,54,0.00,,,0.00,0,weatherlink.com 1.10,2013-02-02 06:22:00,
2013-02-02 01:37:00,43.1,27.0,30.33,NNE,23,4.0,5.0,54,0.00,,,0.00,0,weatherlink.com 1.10,2013-02-02 06:37:00,
2013-02-02 01:54:00,42.4,27.0,30.33,North,11,1.0,5.0,55,0.00,,,0.00,0,weatherlink.com 1.10,2013-02-02 06:54:00,
2013-02-02 02:08:00,41.8,27.0,30.32,NNW,344,1.0,4.0,56,0.00,,,0.00,0,weatherlink.com 1.10,2013-02-02 07:08:00,
2013-02-02 02:24:00,41.2,27.0,30.32,North,9,1.0,3.0,57,0.00,,,0.00,0,weatherlink.com 1.10,2013-02-02 07:24:00,
2013-02-02 02:38:00,40.8,26.0,30.32,NNE,13,2.0,4.0,57,0.00,,,0.00,0,weatherlink.com 1.10,2013-02-02 07:38:00,
2013-02-02 02:54:00,40.5,26.0,30.32,North,355,1.0,4.0,56,0.00,,,0.00,0,weatherlink.com 1.10,2013-02-02 07:54:00,
2013-02-02 03:08:00,40.1,25.0,30.32,North,355,3.0,3.0,56,0.00,,,0.00,0,weatherlink.com 1.10,2013-02-02 08:08:00,
2013-02-02 03:25:00,39.7,25.0,30.32,North,360,1.0,5.0,56,0.00,,,0.00,0,weatherlink.com 1.10,2013-02-02 08:25:00,
2013-02-02 03:38:00,39.2,25.0,30.32,North,5,2.0,4.0,57,0.00,,,0.00,0,weatherlink.com 1.10,2013-02-02 08:38:00,
2013-02-02 03:54:00,38.8,25.0,30.32,North,355,3.0,4.0,58,0.00,,,0.00,0,weatherlink.com 1.10,2013-02-02 08:54:00,
2013-02-02 04:09:00,38.4,24.0,30.31,North,349,1.0,3.0,57,0.00,,,0.00,0,weatherlink.com 1.10,2013-02-02 09:09:00,
2013-02-02 04:24:00,38.3,25.0,30.32,North,5,2.0,5.0,58,0.00,,,0.00,0,weatherlink.com 1.10,2013-02-02 09:24:00,
2013-02-02 04:38:00,37.9,24.0,30.31,NNE,13,4.0,5.0,58,0.00,,,0.00,0,weatherlink.com 1.10,2013-02-02 09:38:00,
2013-02-02 04:54:00,37.8,24.0,30.32,North,5,2.0,6.0,59,0.00,,,0.00,0,weatherlink.com 1.10,2013-02-02 09:54:00,
2013-02-02 05:09:00,37.4,24.0,30.32,North,360,2.0,4.0,60,0.00,,,0.00,0,weatherlink.com 1.10,2013-02-02 10:09:00,
2013-02-02 05:24:00,37.0,24.0,30.32,North,11,3.0,3.0,60,0.00,,,0.00,0,weatherlink.com 1.10,2013-02-02 10:24:00,
2013-02-02 05:40:00,37.0,24.0,30.32,NNE,19,2.0,4.0,60,0.00,,,0.00,0,weatherlink.com 1.10,2013-02-02 10:40:00,
2013-02-02 05:54:00,36.9,24.0,30.32,North,9,2.0,5.0,60,0.00,,,0.00,0,weatherlink.com 1.10,2013-02-02 10:54:00,
2013-02-02 06:09:00,36.6,24.0,30.32,NNW,337,2.0,3.0,60,0.00,,,0.00,0,weatherlink.com 1.10,2013-02-02 11:09:00,
2013-02-02 06:24:00,36.4,24.0,30.33,NNW,327,0.0,5.0,60,0.00,,,0.00,0,weatherlink.com 1.10,2013-02-02 11:24:00,
2013-02-02 06:39:00,36.3,23.0,30.34,NNW,337,1.0,4.0,60,0.00,,,0.00,0,weatherlink.com 1.10,2013-02-02 11:39:00,
2013-02-02 06:54:00,36.2,23.0,30.34,NW,313,1.0,3.0,60,0.00,,,0.00,0,weatherlink.com 1.10,2013-02-02 11:54:00,
2013-02-02 07:10:00,35.9,23.0,30.35,NNW,346,2.0,3.0,60,0.00,,,0.00,0,weatherlink.com 1.10,2013-02-02 12:10:00,
2013-02-02 07:25:00,35.7,23.0,30.35,NNW,345,1.0,3.0,61,0.00,,,0.00,11,weatherlink.com 1.10,2013-02-02 12:25:00,
2013-02-02 07:39:00,35.7,24.0,30.36,NNW,336,3.0,4.0,62,0.00,,,0.00,18,weatherlink.com 1.10,2013-02-02 12:39:00,
2013-02-02 07:55:00,36.3,24.0,30.36,North,5,2.0,5.0,62,0.00,,,0.00,25,weatherlink.com 1.10,2013-02-02 12:55:00,
2013-02-02 08:10:00,37.0,25.0,30.35,North,360,6.0,7.0,62,0.00,,,0.00,49,weatherlink.com 1.10,2013-02-02 13:10:00,
2013-02-02 08:25:00,37.8,26.0,30.35,North,355,6.0,6.0,62,0.00,,,0.00,44,weatherlink.com 1.10,2013-02-02 13:25:00,
2013-02-02 08:40:00,39.1,27.0,30.35,NNE,14,3.0,6.0,63,0.00,,,0.00,95,weatherlink.com 1.10,2013-02-02 13:40:00,
2013-02-02 08:55:00,40.8,29.0,30.35,NNE,18,4.0,6.0,63,0.00,,,0.00,39,weatherlink.com 1.10,2013-02-02 13:55:00,
2013-02-02 09:10:00,42.9,31.0,30.35,North,355,1.0,5.0,63,0.00,,,0.00,278,weatherlink.com 1.10,2013-02-02 14:10:00,
2013-02-02 09:25:00,45.5,33.0,30.35,ENE,60,3.0,6.0,61,0.00,,,0.00,40,weatherlink.com 1.10,2013-02-02 14:25:00,
2013-02-02 09:41:00,47.9,34.0,30.35,NNE,30,4.0,7.0,59,0.00,,,0.00,114,weatherlink.com 1.10,2013-02-02 14:41:00,
2013-02-02 09:55:00,49.7,34.0,30.35,North,355,3.0,6.0,56,0.00,,,0.00,185,weatherlink.com 1.10,2013-02-02 14:55:00,
2013-02-02 10:10:00,51.8,35.0,30.35,ENE,59,2.0,8.0,53,0.00,,,0.00,533,weatherlink.com 1.10,2013-02-02 15:10:00,
2013-02-02 10:25:00,53.7,35.0,30.34,ESE,118,3.0,6.0,50,0.00,,,0.00,503,weatherlink.com 1.10,2013-02-02 15:25:00,
2013-02-02 10:41:00,55.3,36.0,30.34,ENE,74,1.0,6.0,49,0.00,,,0.00,603,weatherlink.com 1.10,2013-02-02 15:41:00,
2013-02-02 10:56:00,56.4,37.0,30.33,North,355,4.0,6.0,48,0.00,,,0.00,294,weatherlink.com 1.10,2013-02-02 15:56:00,
2013-02-02 11:11:00,57.8,38.0,30.32,NNE,13,2.0,5.0,48,0.00,,,0.00,666,weatherlink.com 1.10,2013-02-02 16:11:00,
2013-02-02 11:26:00,58.6,39.0,30.31,ENE,78,1.0,7.0,48,0.00,,,0.00,47,weatherlink.com 1.10,2013-02-02 16:26:00,
2013-02-02 11:41:00,59.6,39.0,30.30,ENE,72,0.0,4.0,46,0.00,,,0.00,705,weatherlink.com 1.10,2013-02-02 16:41:00,
2013-02-02 11:56:00,61.1,38.0,30.30,SE,146,1.0,6.0,43,0.00,,,0.00,722,weatherlink.com 1.10,2013-02-02 16:56:00,
2013-02-02 12:11:00,62.4,39.0,30.29,South,171,3.0,4.0,42,0.00,,,0.00,729,weatherlink.com 1.10,2013-02-02 17:11:00,
2013-02-02 12:26:00,62.8,37.0,30.27,SW,215,3.0,7.0,38,0.00,,,0.00,742,weatherlink.com 1.10,2013-02-02 17:26:00,
2013-02-02 12:41:00,62.2,37.0,30.26,ENE,75,3.0,8.0,39,0.00,,,0.00,747,weatherlink.com 1.10,2013-02-02 17:41:00,
2013-02-02 12:57:00,62.6,36.0,30.25,ENE,57,3.0,5.0,38,0.00,,,0.00,738,weatherlink.com 1.10,2013-02-02 17:57:00,
2013-02-02 13:11:00,63.4,39.0,30.24,ESE,119,0.0,4.0,40,0.00,,,0.00,740,weatherlink.com 1.10,2013-02-02 18:11:00,
2013-02-02 13:26:00,63.1,37.0,30.23,NW,304,2.0,8.0,38,0.00,,,0.00,729,weatherlink.com 1.10,2013-02-02 18:26:00,
2013-02-02 13:42:00,64.0,37.0,30.21,WNW,292,4.0,7.0,37,0.00,,,0.00,712,weatherlink.com 1.10,2013-02-02 18:42:00,
2013-02-02 13:57:00,64.9,36.0,30.21,WSW,246,4.0,6.0,35,0.00,,,0.00,698,weatherlink.com 1.10,2013-02-02 18:57:00,
2013-02-02 14:12:00,65.4,35.0,30.20,South,171,2.0,8.0,33,0.00,,,0.00,673,weatherlink.com 1.10,2013-02-02 19:12:00,
2013-02-02 14:27:00,65.3,36.0,30.20,NNW,339,1.0,4.0,34,0.00,,,0.00,649,weatherlink.com 1.10,2013-02-02 19:27:00,
2013-02-02 14:43:00,66.0,34.0,30.19,SSE,162,0.0,5.0,31,0.00,,,0.00,617,weatherlink.com 1.10,2013-02-02 19:43:00,
2013-02-02 14:57:00,66.3,32.0,30.19,WSW,244,4.0,9.0,28,0.00,,,0.00,584,weatherlink.com 1.10,2013-02-02 19:57:00,
2013-02-02 15:12:00,66.0,34.0,30.18,ESE,105,0.0,8.0,30,0.00,,,0.00,545,weatherlink.com 1.10,2013-02-02 20:12:00,
2013-02-02 15:28:00,66.1,34.0,30.17,NNW,332,2.0,6.0,31,0.00,,,0.00,501,weatherlink.com 1.10,2013-02-02 20:28:00,
2013-02-02 15:42:00,66.9,35.0,30.17,SW,215,3.0,5.0,31,0.00,,,0.00,459,weatherlink.com 1.10,2013-02-02 20:42:00,
2013-02-02 15:58:00,66.4,34.0,30.17,West,278,4.0,9.0,30,0.00,,,0.00,410,weatherlink.com 1.10,2013-02-02 20:58:00,
2013-02-02 16:12:00,67.0,34.0,30.17,SSE,160,0.0,5.0,30,0.00,,,0.00,362,weatherlink.com 1.10,2013-02-02 21:12:00,
2013-02-02 16:28:00,66.3,35.0,30.17,NW,319,4.0,7.0,32,0.00,,,0.00,311,weatherlink.com 1.10,2013-02-02 21:28:00,
2013-02-02 16:44:00,65.9,37.0,30.16,West,273,3.0,9.0,34,0.00,,,0.00,257,weatherlink.com 1.10,2013-02-02 21:44:00,
2013-02-02 16:58:00,65.7,36.0,30.16,SW,233,3.0,9.0,33,0.00,,,0.00,209,weatherlink.com 1.10,2013-02-02 21:58:00,
2013-02-02 17:14:00,65.5,35.0,30.16,West,281,3.0,6.0,32,0.00,,,0.00,146,weatherlink.com 1.10,2013-02-02 22:14:00,
2013-02-02 17:28:00,65.4,35.0,30.16,WNW,292,2.0,6.0,33,0.00,,,0.00,88,weatherlink.com 1.10,2013-02-02 22:28:00,
2013-02-02 17:44:00,64.9,36.0,30.17,WSW,254,2.0,4.0,34,0.00,,,0.00,35,weatherlink.com 1.10,2013-02-02 22:44:00,
2013-02-02 17:58:00,63.9,36.0,30.16,West,260,0.0,2.0,36,0.00,,,0.00,11,weatherlink.com 1.10,2013-02-02 22:58:00,
2013-02-02 18:14:00,61.3,37.0,30.16,West,261,0.0,2.0,40,0.00,,,0.00,0,weatherlink.com 1.10,2013-02-02 23:14:00,
2013-02-02 18:28:00,59.9,37.0,30.16,West,261,0.0,0.0,42,0.00,,,0.00,0,weatherlink.com 1.10,2013-02-02 23:28:00,
2013-02-02 18:44:00,57.8,37.0,30.17,West,261,0.0,1.0,46,0.00,,,0.00,0,weatherlink.com 1.10,2013-02-02 23:44:00,
2013-02-02 18:58:00,56.6,37.0,30.17,West,261,0.0,0.0,48,0.00,,,0.00,0,weatherlink.com 1.10,2013-02-02 23:58:00,
2013-02-02 19:14:00,54.7,37.0,30.17,West,261,0.0,0.0,51,0.00,,,0.00,0,weatherlink.com 1.10,2013-02-03 00:14:00,
2013-02-02 19:28:00,53.2,37.0,30.18,West,261,0.0,0.0,54,0.00,,,0.00,0,weatherlink.com 1.10,2013-02-03 00:28:00,
2013-02-02 19:45:00,51.5,37.0,30.18,West,261,0.0,0.0,57,0.00,,,0.00,0,weatherlink.com 1.10,2013-02-03 00:45:00,
2013-02-02 19:58:00,49.9,36.0,30.18,West,261,0.0,0.0,60,0.00,,,0.00,0,weatherlink.com 1.10,2013-02-03 00:58:00,
2013-02-02 20:14:00,48.7,36.0,30.18,West,261,0.0,0.0,62,0.00,,,0.00,0,weatherlink.com 1.10,2013-02-03 01:14:00,
2013-02-02 20:29:00,47.3,36.0,30.18,West,261,0.0,1.0,64,0.00,,,0.00,0,weatherlink.com 1.10,2013-02-03 01:29:00,
2013-02-02 20:45:00,46.7,35.0,30.18,West,261,0.0,0.0,65,0.00,,,0.00,0,weatherlink.com 1.10,2013-02-03 01:45:00,
2013-02-02 20:59:00,45.2,35.0,30.18,East,91,0.0,4.0,67,0.00,,,0.00,0,weatherlink.com 1.10,2013-02-03 01:59:00,
2013-02-02 21:14:00,44.5,35.0,30.19,East,91,0.0,1.0,70,0.00,,,0.00,0,weatherlink.com 1.10,2013-02-03 02:14:00,
2013-02-02 21:29:00,44.6,35.0,30.19,East,90,0.0,1.0,69,0.00,,,0.00,0,weatherlink.com 1.10,2013-02-03 02:29:00,
2013-02-02 21:44:00,44.1,35.0,30.20,East,91,0.0,1.0,71,0.00,,,0.00,0,weatherlink.com 1.10,2013-02-03 02:44:00,
2013-02-02 21:59:00,43.6,35.0,30.19,East,90,0.0,1.0,72,0.00,,,0.00,0,weatherlink.com 1.10,2013-02-03 02:59:00,
2013-02-02 22:14:00,44.3,37.0,30.19,East,91,0.0,2.0,74,0.00,,,0.00,0,weatherlink.com 1.10,2013-02-03 03:14:00,
2013-02-02 22:29:00,44.2,36.0,30.19,SSW,209,0.0,1.0,74,0.00,,,0.00,0,weatherlink.com 1.10,2013-02-03 03:29:00,
2013-02-02 22:44:00,42.9,36.0,30.20,SSW,212,0.0,3.0,76,0.00,,,0.00,0,weatherlink.com 1.10,2013-02-03 03:44:00,
2013-02-02 22:59:00,42.1,36.0,30.20,SSW,212,0.0,0.0,80,0.00,,,0.00,0,weatherlink.com 1.10,2013-02-03 03:59:00,
2013-02-02 23:14:00,41.5,36.0,30.19,SSW,212,0.0,0.0,80,0.00,,,0.00,0,weatherlink.com 1.10,2013-02-03 04:14:00,
2013-02-02 23:34:00,40.9,36.0,30.19,SSW,212,0.0,1.0,83,0.00,,,0.00,0,weatherlink.com 1.10,2013-02-03 04:34:00,
2013-02-02 23:44:00,41.4,36.0,30.17,SSW,209,0.0,2.0,80,0.00,,,0.00,0,weatherlink.com 1.10,2013-02-03 04:44:00,
2013-02-02 23:59:00,40.0,34.0,30.17,SSW,211,0.0,2.0,78,0.00,,,0.00,0,weatherlink.com 1.10,2013-02-03 04:59:00,